sensor_id;sensor_type;location;lat;lon;timestamp;temperature;humidity
13835;DHT22;6988;52.614;13.500;2022-08-01T00:04:01;21.10;99.90
13835;DHT22;6988;52.614;13.500;2022-08-01T00:08:54;21.10;99.90
13835;DHT22;6988;52.614;13.500;2022-08-01T00:13:47;21.00;99.90
13835;DHT22;6988;52.614;13.500;2022-08-01T00:18:39;21.00;99.90
13835;DHT22;6988;52.614;13.500;2022-08-01T00:23:31;20.90;99.90
13835;DHT22;6988;52.614;13.500;2022-08-01T00:28:23;21.00;99.90
13835;DHT22;6988;52.614;13.500;2022-08-01T00:33:16;21.10;99.90
13835;DHT22;6988;52.614;13.500;2022-08-01T00:38:08;20.90;99.90
13835;DHT22;6988;52.614;13.500;2022-08-01T00:43:00;21.00;99.90
13835;DHT22;6988;52.614;13.500;2022-08-01T00:47:52;20.70;99.90
13835;DHT22;6988;52.614;13.500;2022-08-01T00:52:45;20.60;99.90
13835;DHT22;6988;52.614;13.500;2022-08-01T00:57:37;20.40;99.90
13835;DHT22;6988;52.614;13.500;2022-08-01T01:02:30;20.30;99.90
13835;DHT22;6988;52.614;13.500;2022-08-01T01:07:29;20.00;99.90
13835;DHT22;6988;52.614;13.500;2022-08-01T01:12:30;19.90;99.90
13835;DHT22;6988;52.614;13.500;2022-08-01T01:17:33;20.00;99.90
13835;DHT22;6988;52.614;13.500;2022-08-01T01:22:41;19.90;99.90
13835;DHT22;6988;52.614;13.500;2022-08-01T01:27:47;19.90;99.90
13835;DHT22;6988;52.614;13.500;2022-08-01T01:32:51;19.90;99.90
13835;DHT22;6988;52.614;13.500;2022-08-01T01:37:46;19.90;99.90
13835;DHT22;6988;52.614;13.500;2022-08-01T01:42:42;20.00;99.90
13835;DHT22;6988;52.614;13.500;2022-08-01T01:47:36;19.80;99.90
13835;DHT22;6988;52.614;13.500;2022-08-01T01:52:31;19.90;99.90
13835;DHT22;6988;52.614;13.500;2022-08-01T01:57:24;20.00;99.90
13835;DHT22;6988;52.614;13.500;2022-08-01T02:02:17;19.90;99.90
13835;DHT22;6988;52.614;13.500;2022-08-01T02:07:13;19.90;99.90
13835;DHT22;6988;52.614;13.500;2022-08-01T02:12:17;19.70;99.90
13835;DHT22;6988;52.614;13.500;2022-08-01T02:17:15;19.60;99.90
13835;DHT22;6988;52.614;13.500;2022-08-01T02:22:11;19.50;99.90
13835;DHT22;6988;52.614;13.500;2022-08-01T02:27:10;19.40;99.90
13835;DHT22;6988;52.614;13.500;2022-08-01T02:32:06;19.20;99.90
13835;DHT22;6988;52.614;13.500;2022-08-01T02:37:03;19.10;99.90
13835;DHT22;6988;52.614;13.500;2022-08-01T02:42:00;19.00;99.90
13835;DHT22;6988;52.614;13.500;2022-08-01T02:47:00;19.10;99.90
13835;DHT22;6988;52.614;13.500;2022-08-01T02:51:55;19.10;99.90
13835;DHT22;6988;52.614;13.500;2022-08-01T02:56:50;19.10;99.90
13835;DHT22;6988;52.614;13.500;2022-08-01T03:01:45;19.10;99.90
13835;DHT22;6988;52.614;13.500;2022-08-01T03:06:39;19.20;99.90
13835;DHT22;6988;52.614;13.500;2022-08-01T03:11:35;19.20;99.90
13835;DHT22;6988;52.614;13.500;2022-08-01T03:16:32;19.00;99.90
13835;DHT22;6988;52.614;13.500;2022-08-01T03:21:28;19.00;99.90
13835;DHT22;6988;52.614;13.500;2022-08-01T03:26:25;19.10;99.90
13835;DHT22;6988;52.614;13.500;2022-08-01T03:31:21;19.20;99.90
13835;DHT22;6988;52.614;13.500;2022-08-01T03:36:14;19.10;99.90
13835;DHT22;6988;52.614;13.500;2022-08-01T03:41:11;19.20;99.90
13835;DHT22;6988;52.614;13.500;2022-08-01T03:46:11;19.00;99.90
13835;DHT22;6988;52.614;13.500;2022-08-01T03:51:09;19.10;99.90
13835;DHT22;6988;52.614;13.500;2022-08-01T03:56:03;19.00;99.90
13835;DHT22;6988;52.614;13.500;2022-08-01T04:00:58;19.10;99.90
13835;DHT22;6988;52.614;13.500;2022-08-01T04:05:51;19.10;99.90
13835;DHT22;6988;52.614;13.500;2022-08-01T04:10:44;19.20;99.90
13835;DHT22;6988;52.614;13.500;2022-08-01T04:15:36;19.30;99.90
13835;DHT22;6988;52.614;13.500;2022-08-01T04:20:28;19.20;99.90
13835;DHT22;6988;52.614;13.500;2022-08-01T04:25:25;19.20;99.90
13835;DHT22;6988;52.614;13.500;2022-08-01T04:30:25;19.20;99.90
13835;DHT22;6988;52.614;13.500;2022-08-01T04:35:20;19.20;99.90
13835;DHT22;6988;52.614;13.500;2022-08-01T04:40:13;19.20;99.90
13835;DHT22;6988;52.614;13.500;2022-08-01T04:45:08;19.20;99.90
13835;DHT22;6988;52.614;13.500;2022-08-01T04:50:04;19.30;99.90
13835;DHT22;6988;52.614;13.500;2022-08-01T04:54:58;19.40;99.90
13835;DHT22;6988;52.614;13.500;2022-08-01T04:59:50;19.40;99.90
13835;DHT22;6988;52.614;13.500;2022-08-01T05:04:47;19.40;99.90
13835;DHT22;6988;52.614;13.500;2022-08-01T05:09:40;19.40;99.90
13835;DHT22;6988;52.614;13.500;2022-08-01T05:14:33;19.50;99.90
13835;DHT22;6988;52.614;13.500;2022-08-01T05:19:25;19.40;99.90
13835;DHT22;6988;52.614;13.500;2022-08-01T05:24:17;19.50;99.90
13835;DHT22;6988;52.614;13.500;2022-08-01T05:29:10;19.70;99.90
13835;DHT22;6988;52.614;13.500;2022-08-01T05:34:02;19.70;99.90
13835;DHT22;6988;52.614;13.500;2022-08-01T05:38:54;19.70;99.90
13835;DHT22;6988;52.614;13.500;2022-08-01T05:43:46;19.70;99.90
13835;DHT22;6988;52.614;13.500;2022-08-01T05:48:39;19.70;99.90
13835;DHT22;6988;52.614;13.500;2022-08-01T05:53:31;19.70;99.90
13835;DHT22;6988;52.614;13.500;2022-08-01T05:58:24;19.70;99.90
13835;DHT22;6988;52.614;13.500;2022-08-01T06:03:16;19.70;99.90
13835;DHT22;6988;52.614;13.500;2022-08-01T06:08:09;19.80;99.90
13835;DHT22;6988;52.614;13.500;2022-08-01T06:13:01;19.70;99.90
13835;DHT22;6988;52.614;13.500;2022-08-01T06:17:53;19.70;99.90
13835;DHT22;6988;52.614;13.500;2022-08-01T06:22:45;19.70;99.90
13835;DHT22;6988;52.614;13.500;2022-08-01T06:27:38;19.70;99.90
13835;DHT22;6988;52.614;13.500;2022-08-01T06:32:30;19.70;99.90
13835;DHT22;6988;52.614;13.500;2022-08-01T06:37:22;19.60;99.90
13835;DHT22;6988;52.614;13.500;2022-08-01T06:42:14;19.80;99.90
13835;DHT22;6988;52.614;13.500;2022-08-01T06:47:07;20.00;99.90
13835;DHT22;6988;52.614;13.500;2022-08-01T06:51:58;20.10;99.90
13835;DHT22;6988;52.614;13.500;2022-08-01T06:56:50;20.30;99.90
13835;DHT22;6988;52.614;13.500;2022-08-01T07:01:42;20.40;99.90
13835;DHT22;6988;52.614;13.500;2022-08-01T07:06:35;20.50;99.90
13835;DHT22;6988;52.614;13.500;2022-08-01T07:11:27;20.50;99.90
13835;DHT22;6988;52.614;13.500;2022-08-01T07:16:19;20.60;99.90
13835;DHT22;6988;52.614;13.500;2022-08-01T07:21:11;20.40;99.90
13835;DHT22;6988;52.614;13.500;2022-08-01T07:26:04;20.50;99.90
13835;DHT22;6988;52.614;13.500;2022-08-01T07:30:56;20.50;99.90
13835;DHT22;6988;52.614;13.500;2022-08-01T07:35:48;20.60;99.90
13835;DHT22;6988;52.614;13.500;2022-08-01T07:40:40;20.60;99.90
13835;DHT22;6988;52.614;13.500;2022-08-01T07:45:33;20.70;99.90
13835;DHT22;6988;52.614;13.500;2022-08-01T07:50:25;20.80;99.90
13835;DHT22;6988;52.614;13.500;2022-08-01T07:55:16;20.80;99.90
13835;DHT22;6988;52.614;13.500;2022-08-01T08:00:09;20.90;99.90
13835;DHT22;6988;52.614;13.500;2022-08-01T08:05:03;21.10;99.90
13835;DHT22;6988;52.614;13.500;2022-08-01T08:09:56;21.30;99.90
13835;DHT22;6988;52.614;13.500;2022-08-01T08:14:49;21.40;99.90
13835;DHT22;6988;52.614;13.500;2022-08-01T08:19:40;21.30;99.90
13835;DHT22;6988;52.614;13.500;2022-08-01T08:24:33;21.20;99.90
13835;DHT22;6988;52.614;13.500;2022-08-01T08:29:27;21.30;99.90
13835;DHT22;6988;52.614;13.500;2022-08-01T08:34:20;21.40;99.90
13835;DHT22;6988;52.614;13.500;2022-08-01T08:39:12;21.90;99.90
13835;DHT22;6988;52.614;13.500;2022-08-01T08:44:06;22.30;99.90
13835;DHT22;6988;52.614;13.500;2022-08-01T08:49:00;22.40;99.90
13835;DHT22;6988;52.614;13.500;2022-08-01T08:53:57;22.40;99.90
13835;DHT22;6988;52.614;13.500;2022-08-01T08:58:50;22.20;99.90
13835;DHT22;6988;52.614;13.500;2022-08-01T09:03:44;22.40;99.90
13835;DHT22;6988;52.614;13.500;2022-08-01T09:08:36;22.10;99.90
13835;DHT22;6988;52.614;13.500;2022-08-01T09:13:28;22.30;99.90
13835;DHT22;6988;52.614;13.500;2022-08-01T09:18:28;22.50;99.90
13835;DHT22;6988;52.614;13.500;2022-08-01T09:23:32;22.80;99.90
13835;DHT22;6988;52.614;13.500;2022-08-01T09:28:28;23.00;99.90
13835;DHT22;6988;52.614;13.500;2022-08-01T09:33:20;23.00;99.90
13835;DHT22;6988;52.614;13.500;2022-08-01T09:38:13;22.80;99.90
13835;DHT22;6988;52.614;13.500;2022-08-01T09:43:17;22.60;99.90
13835;DHT22;6988;52.614;13.500;2022-08-01T09:48:09;22.40;99.90
13835;DHT22;6988;52.614;13.500;2022-08-01T09:53:03;22.40;99.90
13835;DHT22;6988;52.614;13.500;2022-08-01T09:57:55;22.20;99.90
13835;DHT22;6988;52.614;13.500;2022-08-01T10:02:49;22.20;99.90
13835;DHT22;6988;52.614;13.500;2022-08-01T10:07:56;22.00;99.90
13835;DHT22;6988;52.614;13.500;2022-08-01T10:12:49;22.00;99.90
13835;DHT22;6988;52.614;13.500;2022-08-01T10:17:46;22.00;99.90
13835;DHT22;6988;52.614;13.500;2022-08-01T10:22:44;22.00;99.90
13835;DHT22;6988;52.614;13.500;2022-08-01T10:27:38;22.00;99.90
13835;DHT22;6988;52.614;13.500;2022-08-01T10:32:35;22.20;99.90
13835;DHT22;6988;52.614;13.500;2022-08-01T10:37:29;22.50;99.90
13835;DHT22;6988;52.614;13.500;2022-08-01T10:42:21;23.10;99.90
13835;DHT22;6988;52.614;13.500;2022-08-01T10:47:15;23.20;99.90
13835;DHT22;6988;52.614;13.500;2022-08-01T10:52:14;23.30;99.90
13835;DHT22;6988;52.614;13.500;2022-08-01T10:57:08;23.20;99.90
13835;DHT22;6988;52.614;13.500;2022-08-01T11:02:02;22.80;99.90
13835;DHT22;6988;52.614;13.500;2022-08-01T11:07:03;22.60;99.90
13835;DHT22;6988;52.614;13.500;2022-08-01T11:11:58;22.50;99.90
13835;DHT22;6988;52.614;13.500;2022-08-01T11:16:55;22.50;99.90
13835;DHT22;6988;52.614;13.500;2022-08-01T11:22:07;22.60;99.90
13835;DHT22;6988;52.614;13.500;2022-08-01T11:27:17;22.80;99.90
13835;DHT22;6988;52.614;13.500;2022-08-01T11:32:26;22.50;99.90
13835;DHT22;6988;52.614;13.500;2022-08-01T11:37:26;22.40;99.90
13835;DHT22;6988;52.614;13.500;2022-08-01T11:42:19;22.10;99.90
13835;DHT22;6988;52.614;13.500;2022-08-01T11:47:11;21.80;99.90
13835;DHT22;6988;52.614;13.500;2022-08-01T11:52:07;21.70;99.90
13835;DHT22;6988;52.614;13.500;2022-08-01T11:57:03;21.70;99.90
13835;DHT22;6988;52.614;13.500;2022-08-01T12:01:57;21.80;99.90
13835;DHT22;6988;52.614;13.500;2022-08-01T12:06:49;22.10;99.90
13835;DHT22;6988;52.614;13.500;2022-08-01T12:11:42;22.30;99.90
13835;DHT22;6988;52.614;13.500;2022-08-01T12:16:34;22.50;99.90
13835;DHT22;6988;52.614;13.500;2022-08-01T12:21:25;23.00;99.90
13835;DHT22;6988;52.614;13.500;2022-08-01T12:26:17;23.40;99.90
13835;DHT22;6988;52.614;13.500;2022-08-01T12:31:11;23.40;99.90
13835;DHT22;6988;52.614;13.500;2022-08-01T12:36:02;22.80;99.90
13835;DHT22;6988;52.614;13.500;2022-08-01T12:40:54;22.50;99.90
13835;DHT22;6988;52.614;13.500;2022-08-01T12:45:48;22.40;99.90
13835;DHT22;6988;52.614;13.500;2022-08-01T12:50:44;22.10;99.90
13835;DHT22;6988;52.614;13.500;2022-08-01T12:55:44;22.30;99.90
13835;DHT22;6988;52.614;13.500;2022-08-01T13:00:39;22.70;99.90
13835;DHT22;6988;52.614;13.500;2022-08-01T13:05:43;23.10;99.90
13835;DHT22;6988;52.614;13.500;2022-08-01T13:10:36;23.10;99.90
13835;DHT22;6988;52.614;13.500;2022-08-01T13:15:29;23.00;99.90
13835;DHT22;6988;52.614;13.500;2022-08-01T13:20:29;23.00;99.90
13835;DHT22;6988;52.614;13.500;2022-08-01T13:25:23;22.90;99.90
13835;DHT22;6988;52.614;13.500;2022-08-01T13:30:17;22.80;99.90
13835;DHT22;6988;52.614;13.500;2022-08-01T13:35:12;22.70;99.90
13835;DHT22;6988;52.614;13.500;2022-08-01T13:40:05;22.70;99.90
13835;DHT22;6988;52.614;13.500;2022-08-01T13:45:01;22.80;99.90
13835;DHT22;6988;52.614;13.500;2022-08-01T13:49:53;22.80;99.90
13835;DHT22;6988;52.614;13.500;2022-08-01T13:54:45;23.10;99.90
13835;DHT22;6988;52.614;13.500;2022-08-01T13:59:37;23.20;99.90
13835;DHT22;6988;52.614;13.500;2022-08-01T14:04:30;23.20;99.90
13835;DHT22;6988;52.614;13.500;2022-08-01T14:09:21;23.20;99.90
13835;DHT22;6988;52.614;13.500;2022-08-01T14:14:13;23.10;99.90
13835;DHT22;6988;52.614;13.500;2022-08-01T14:19:05;23.20;99.90
13835;DHT22;6988;52.614;13.500;2022-08-01T14:23:58;23.50;99.90
13835;DHT22;6988;52.614;13.500;2022-08-01T14:28:50;23.70;99.90
13835;DHT22;6988;52.614;13.500;2022-08-01T14:33:42;24.00;99.90
13835;DHT22;6988;52.614;13.500;2022-08-01T14:38:34;24.30;99.90
13835;DHT22;6988;52.614;13.500;2022-08-01T14:43:27;24.50;99.90
13835;DHT22;6988;52.614;13.500;2022-08-01T14:48:19;24.60;99.90
13835;DHT22;6988;52.614;13.500;2022-08-01T14:53:10;24.30;99.90
13835;DHT22;6988;52.614;13.500;2022-08-01T14:58:02;24.10;99.90
13835;DHT22;6988;52.614;13.500;2022-08-01T15:02:55;23.90;99.90
13835;DHT22;6988;52.614;13.500;2022-08-01T15:07:47;23.80;99.90
13835;DHT22;6988;52.614;13.500;2022-08-01T15:12:39;24.00;99.90
13835;DHT22;6988;52.614;13.500;2022-08-01T15:17:31;24.30;99.90
13835;DHT22;6988;52.614;13.500;2022-08-01T15:22:25;24.60;99.90
13835;DHT22;6988;52.614;13.500;2022-08-01T15:27:19;24.90;99.90
13835;DHT22;6988;52.614;13.500;2022-08-01T15:32:11;24.90;99.90
13835;DHT22;6988;52.614;13.500;2022-08-01T15:37:04;25.10;99.90
13835;DHT22;6988;52.614;13.500;2022-08-01T15:42:02;25.20;99.90
13835;DHT22;6988;52.614;13.500;2022-08-01T15:46:56;25.40;99.90
13835;DHT22;6988;52.614;13.500;2022-08-01T15:51:48;25.50;99.90
13835;DHT22;6988;52.614;13.500;2022-08-01T15:56:40;25.20;99.90
13835;DHT22;6988;52.614;13.500;2022-08-01T16:01:34;25.20;99.90
13835;DHT22;6988;52.614;13.500;2022-08-01T16:06:26;25.10;99.90
13835;DHT22;6988;52.614;13.500;2022-08-01T16:11:19;24.90;99.90
13835;DHT22;6988;52.614;13.500;2022-08-01T16:16:13;24.80;99.90
13835;DHT22;6988;52.614;13.500;2022-08-01T16:21:07;24.70;99.90
13835;DHT22;6988;52.614;13.500;2022-08-01T16:26:01;24.50;99.90
13835;DHT22;6988;52.614;13.500;2022-08-01T16:30:52;24.40;99.90
13835;DHT22;6988;52.614;13.500;2022-08-01T16:35:44;24.40;99.90
13835;DHT22;6988;52.614;13.500;2022-08-01T16:40:38;24.40;99.90
13835;DHT22;6988;52.614;13.500;2022-08-01T16:45:30;24.40;99.90
13835;DHT22;6988;52.614;13.500;2022-08-01T16:50:22;24.40;99.90
13835;DHT22;6988;52.614;13.500;2022-08-01T16:55:14;24.30;99.90
13835;DHT22;6988;52.614;13.500;2022-08-01T17:00:09;24.30;99.90
13835;DHT22;6988;52.614;13.500;2022-08-01T17:05:04;24.20;99.90
13835;DHT22;6988;52.614;13.500;2022-08-01T17:09:57;24.20;99.90
13835;DHT22;6988;52.614;13.500;2022-08-01T17:14:50;24.20;99.90
13835;DHT22;6988;52.614;13.500;2022-08-01T17:19:43;24.10;99.90
13835;DHT22;6988;52.614;13.500;2022-08-01T17:24:35;24.10;99.90
13835;DHT22;6988;52.614;13.500;2022-08-01T17:29:27;24.00;99.90
13835;DHT22;6988;52.614;13.500;2022-08-01T17:34:19;24.00;99.90
13835;DHT22;6988;52.614;13.500;2022-08-01T17:39:12;23.90;99.90
13835;DHT22;6988;52.614;13.500;2022-08-01T17:44:04;23.80;99.90
13835;DHT22;6988;52.614;13.500;2022-08-01T17:48:56;23.70;99.90
13835;DHT22;6988;52.614;13.500;2022-08-01T17:53:49;23.60;99.90
13835;DHT22;6988;52.614;13.500;2022-08-01T17:58:42;23.60;99.90
13835;DHT22;6988;52.614;13.500;2022-08-01T18:03:34;23.40;99.90
13835;DHT22;6988;52.614;13.500;2022-08-01T18:08:26;23.40;99.90
13835;DHT22;6988;52.614;13.500;2022-08-01T18:13:19;23.30;99.90
13835;DHT22;6988;52.614;13.500;2022-08-01T18:18:12;23.20;99.90
13835;DHT22;6988;52.614;13.500;2022-08-01T18:23:06;23.10;99.90
13835;DHT22;6988;52.614;13.500;2022-08-01T18:28:00;23.10;99.90
13835;DHT22;6988;52.614;13.500;2022-08-01T18:32:52;23.00;99.90
13835;DHT22;6988;52.614;13.500;2022-08-01T18:37:46;22.80;99.90
13835;DHT22;6988;52.614;13.500;2022-08-01T18:42:38;22.60;99.90
13835;DHT22;6988;52.614;13.500;2022-08-01T18:47:30;22.40;99.90
13835;DHT22;6988;52.614;13.500;2022-08-01T18:52:21;22.30;99.90
13835;DHT22;6988;52.614;13.500;2022-08-01T18:57:14;22.10;99.90
13835;DHT22;6988;52.614;13.500;2022-08-01T19:02:06;22.00;99.90
13835;DHT22;6988;52.614;13.500;2022-08-01T19:06:58;21.90;99.90
13835;DHT22;6988;52.614;13.500;2022-08-01T19:11:49;21.80;99.90
13835;DHT22;6988;52.614;13.500;2022-08-01T19:16:43;21.70;99.90
13835;DHT22;6988;52.614;13.500;2022-08-01T19:21:35;21.60;99.90
13835;DHT22;6988;52.614;13.500;2022-08-01T19:26:27;21.50;99.90
13835;DHT22;6988;52.614;13.500;2022-08-01T19:31:21;21.50;99.90
13835;DHT22;6988;52.614;13.500;2022-08-01T19:36:18;21.50;99.90
13835;DHT22;6988;52.614;13.500;2022-08-01T19:41:10;21.40;99.90
13835;DHT22;6988;52.614;13.500;2022-08-01T19:46:03;21.50;99.90
13835;DHT22;6988;52.614;13.500;2022-08-01T19:50:57;21.30;99.90
13835;DHT22;6988;52.614;13.500;2022-08-01T19:55:54;21.30;99.90
13835;DHT22;6988;52.614;13.500;2022-08-01T20:00:49;21.20;99.90
13835;DHT22;6988;52.614;13.500;2022-08-01T20:05:41;21.20;99.90
13835;DHT22;6988;52.614;13.500;2022-08-01T20:10:35;21.20;99.90
13835;DHT22;6988;52.614;13.500;2022-08-01T20:15:29;21.00;99.90
13835;DHT22;6988;52.614;13.500;2022-08-01T20:20:21;21.00;99.90
13835;DHT22;6988;52.614;13.500;2022-08-01T20:25:13;21.00;99.90
13835;DHT22;6988;52.614;13.500;2022-08-01T20:30:08;20.90;99.90
13835;DHT22;6988;52.614;13.500;2022-08-01T20:35:03;20.90;99.90
13835;DHT22;6988;52.614;13.500;2022-08-01T20:39:57;20.80;99.90
13835;DHT22;6988;52.614;13.500;2022-08-01T20:44:51;20.80;99.90
13835;DHT22;6988;52.614;13.500;2022-08-01T20:49:46;20.60;99.90
13835;DHT22;6988;52.614;13.500;2022-08-01T20:54:39;20.60;99.90
13835;DHT22;6988;52.614;13.500;2022-08-01T20:59:46;20.50;99.90
13835;DHT22;6988;52.614;13.500;2022-08-01T21:04:51;20.40;99.90
13835;DHT22;6988;52.614;13.500;2022-08-01T21:09:58;20.50;99.90
13835;DHT22;6988;52.614;13.500;2022-08-01T21:14:57;20.30;99.90
13835;DHT22;6988;52.614;13.500;2022-08-01T21:19:53;20.20;99.90
13835;DHT22;6988;52.614;13.500;2022-08-01T21:24:53;20.00;99.90
13835;DHT22;6988;52.614;13.500;2022-08-01T21:29:49;19.80;99.90
13835;DHT22;6988;52.614;13.500;2022-08-01T21:34:44;19.70;99.90
13835;DHT22;6988;52.614;13.500;2022-08-01T21:39:37;19.60;99.90
13835;DHT22;6988;52.614;13.500;2022-08-01T21:44:36;19.60;99.90
13835;DHT22;6988;52.614;13.500;2022-08-01T21:49:29;19.50;99.90
13835;DHT22;6988;52.614;13.500;2022-08-01T21:54:26;19.40;99.90
13835;DHT22;6988;52.614;13.500;2022-08-01T21:59:24;19.40;99.90
13835;DHT22;6988;52.614;13.500;2022-08-01T22:04:33;19.30;99.90
13835;DHT22;6988;52.614;13.500;2022-08-01T22:09:32;19.30;99.90
13835;DHT22;6988;52.614;13.500;2022-08-01T22:14:25;19.20;99.90
13835;DHT22;6988;52.614;13.500;2022-08-01T22:19:20;19.20;99.90
13835;DHT22;6988;52.614;13.500;2022-08-01T22:24:15;19.10;99.90
13835;DHT22;6988;52.614;13.500;2022-08-01T22:29:06;19.00;99.90
13835;DHT22;6988;52.614;13.500;2022-08-01T22:33:59;18.80;99.90
13835;DHT22;6988;52.614;13.500;2022-08-01T22:38:51;18.90;99.90
13835;DHT22;6988;52.614;13.500;2022-08-01T22:43:57;18.80;99.90
13835;DHT22;6988;52.614;13.500;2022-08-01T22:48:58;18.80;99.90
13835;DHT22;6988;52.614;13.500;2022-08-01T22:53:59;18.60;99.90
13835;DHT22;6988;52.614;13.500;2022-08-01T22:58:58;18.70;99.90
13835;DHT22;6988;52.614;13.500;2022-08-01T23:03:56;18.60;99.90
13835;DHT22;6988;52.614;13.500;2022-08-01T23:08:49;18.50;99.90
13835;DHT22;6988;52.614;13.500;2022-08-01T23:13:43;18.60;99.90
13835;DHT22;6988;52.614;13.500;2022-08-01T23:18:39;18.40;99.90
13835;DHT22;6988;52.614;13.500;2022-08-01T23:23:32;18.30;99.90
13835;DHT22;6988;52.614;13.500;2022-08-01T23:28:26;18.20;99.90
13835;DHT22;6988;52.614;13.500;2022-08-01T23:33:18;18.20;99.90
13835;DHT22;6988;52.614;13.500;2022-08-01T23:38:11;18.20;99.90
13835;DHT22;6988;52.614;13.500;2022-08-01T23:43:05;18.20;99.90
13835;DHT22;6988;52.614;13.500;2022-08-01T23:47:57;18.20;99.90
13835;DHT22;6988;52.614;13.500;2022-08-01T23:52:49;18.20;99.90
13835;DHT22;6988;52.614;13.500;2022-08-01T23:57:42;18.10;99.90
